Time;durP1;ratioP1;P1;durP2;ratioP2;P2;SDS_P1;SDS_P2;PMS_P1;PMS_P2;Temp;Humidity;BMP_temperature;BMP_pressure;BME280_temperature;BME280_humidity;BME280_pressure;Samples;Min_cycle;Max_cycle;Signal;HPM_P1;HPM_P2
2022/03/22 00:00:11;;;;;;;24.08;14.65;;;;;;;;;;5052495;28;20039;-68
2022/03/22 00:02:37;;;;;;;23.60;14.80;;;;;;;;;;5053180;28;20103;-68
2022/03/22 00:05:03;;;;;;;21.38;14.05;;;;;;;;;;5050339;28;20120;-69
2022/03/22 00:07:31;;;;;;;24.35;14.55;;;;;;;;;;5052702;28;20025;-69
2022/03/22 00:09:57;;;;;;;22.92;14.85;;;;;;;;;;5050809;28;20025;-68
2022/03/22 00:12:23;;;;;;;21.98;13.73;;;;;;;;;;5052720;28;20446;-68
2022/03/22 00:14:49;;;;;;;24.10;14.50;;;;;;;;;;5053299;28;20078;-69
2022/03/22 00:17:15;;;;;;;22.65;14.88;;;;;;;;;;5052118;28;20258;-68
2022/03/22 00:19:41;;;;;;;26.92;15.02;;;;;;;;;;5052375;28;20025;-69
2022/03/22 00:22:07;;;;;;;28.58;15.43;;;;;;;;;;5052931;28;20677;-69
2022/03/22 00:24:33;;;;;;;22.90;15.20;;;;;;;;;;5058814;28;20033;-69
2022/03/22 00:26:59;;;;;;;26.40;15.05;;;;;;;;;;5060153;28;20428;-67
2022/03/22 00:29:25;;;;;;;24.88;14.38;;;;;;;;;;5057884;28;20370;-68
2022/03/22 00:31:51;;;;;;;21.98;13.57;;;;;;;;;;5057175;28;20039;-68
2022/03/22 00:34:17;;;;;;;21.55;13.80;;;;;;;;;;5050242;28;20479;-68
2022/03/22 00:36:49;;;;;;;26.48;15.35;;;;;;;;;;5050739;28;20016;-68
2022/03/22 00:39:15;;;;;;;23.45;14.75;;;;;;;;;;5050381;28;20044;-70
2022/03/22 00:41:41;;;;;;;24.30;15.00;;;;;;;;;;5052208;28;20029;-70
2022/03/22 00:44:08;;;;;;;20.92;14.05;;;;;;;;;;5051567;28;20033;-68
2022/03/22 00:46:34;;;;;;;;;;;;;;;;;;5050750;28;20029;-68
2022/03/22 00:49:01;;;;;;;;;;;;;;;;;;5048537;28;20046;-68
2022/03/22 00:51:27;;;;;;;24.33;15.77;;;;;;;;;;5051246;28;19916;-71
2022/03/22 00:53:53;;;;;;;24.43;15.43;;;;;;;;;;5050948;28;20477;-71
2022/03/22 00:56:19;;;;;;;23.75;14.43;;;;;;;;;;5051630;28;20039;-71
2022/03/22 00:58:45;;;;;;;23.13;15.47;;;;;;;;;;5049822;28;20112;-68
2022/03/22 01:01:11;;;;;;;24.33;15.13;;;;;;;;;;5051638;28;20055;-70
2022/03/22 01:03:37;;;;;;;21.77;14.83;;;;;;;;;;5049629;28;20552;-71
2022/03/22 01:06:04;;;;;;;24.57;15.03;;;;;;;;;;5051518;28;20043;-69
2022/03/22 01:08:30;;;;;;;26.43;15.70;;;;;;;;;;5049780;28;20029;-69
2022/03/22 01:10:56;;;;;;;25.43;15.80;;;;;;;;;;5052138;28;20029;-69
2022/03/22 01:13:23;;;;;;;25.67;14.97;;;;;;;;;;5050279;28;20028;-69
2022/03/22 01:15:49;;;;;;;;;;;;;;;;;;5049354;28;20029;-69
2022/03/22 01:18:15;;;;;;;23.63;14.77;;;;;;;;;;5051504;28;19928;-68
2022/03/22 01:20:42;;;;;;;26.07;15.03;;;;;;;;;;5049779;28;20029;-69
2022/03/22 01:23:09;;;;;;;25.23;14.27;;;;;;;;;;5051409;28;20040;-67
2022/03/22 01:25:36;;;;;;;25.63;15.83;;;;;;;;;;5050646;28;20029;-69
2022/03/22 01:28:07;;;;;;;28.40;15.00;;;;;;;;;;5051405;28;20453;-68
2022/03/22 01:30:33;;;;;;;26.07;15.33;;;;;;;;;;5050345;28;20124;-70
2022/03/22 01:32:59;;;;;;;23.73;16.00;;;;;;;;;;5051049;28;20029;-69
2022/03/22 01:35:26;;;;;;;22.60;15.10;;;;;;;;;;5050335;28;20044;-69
2022/03/22 01:37:52;;;;;;;;;;;;;;;;;;5050431;28;20071;-71
2022/03/22 01:40:18;;;;;;;;;;;;;;;;;;5051764;28;19943;-72
2022/03/22 01:42:44;;;;;;;30.60;18.13;;;;;;;;;;5050486;28;20418;-71
2022/03/22 01:45:10;;;;;;;23.08;15.30;;;;;;;;;;5053210;28;20040;-69
2022/03/22 01:47:36;;;;;;;;;;;;;;;;;;5074357;28;20029;-71
2022/03/22 01:50:02;;;;;;;;;;;;;;;;;;5069983;28;19972;-71
2022/03/22 01:52:28;;;;;;;;;;;;;;;;;;5053860;28;20399;-71
2022/03/22 01:54:55;;;;;;;;;;;;;;;;;;5051691;28;19909;-69
2022/03/22 01:57:21;;;;;;;;;;;;;;;;;;5054456;28;19919;-69
2022/03/22 01:59:47;;;;;;;;;;;;;;;;;;5055687;28;20011;-68
2022/03/22 02:07:42;;;;;;;;;;;;;;;;;;5047521;28;20275;-69
2022/03/22 02:10:08;;;;;;;;;;;;;;;;;;5054026;28;19928;-69
2022/03/22 02:12:34;;;;;;;;;;;;;;;;;;5054982;28;19909;-69
2022/03/22 02:15:00;;;;;;;;;;;;;;;;;;5054112;28;19915;-69
2022/03/22 02:17:26;;;;;;;;;;;;;;;;;;5054969;28;19905;-68
2022/03/22 02:19:52;;;;;;;;;;;;;;;;;;5053725;28;19915;-68
2022/03/22 02:22:18;;;;;;;;;;;;;;;;;;5054349;28;19912;-68
2022/03/22 02:24:43;;;;;;;;;;;;;;;;;;5053416;28;19948;-69
2022/03/22 02:27:09;;;;;;;;;;;;;;;;;;5044268;28;19916;-68
2022/03/22 02:29:35;;;;;;;;;;;;;;;;;;5054973;28;19920;-68
2022/03/22 02:32:01;;;;;;;;;;;;;;;;;;5053285;28;19996;-68
2022/03/22 02:34:27;;;;;;;;;;;;;;;;;;5054420;28;19916;-68
2022/03/22 02:36:53;;;;;;;;;;;;;;;;;;5055297;28;19908;-68
2022/03/22 02:39:19;;;;;;;;;;;;;;;;;;5056112;28;20265;-68
2022/03/22 02:41:45;;;;;;;;;;;;;;;;;;5054728;28;19909;-69
2022/03/22 02:44:11;;;;;;;;;;;;;;;;;;5055563;28;19924;-68
2022/03/22 02:46:37;;;;;;;;;;;;;;;;;;5053589;28;19978;-67
2022/03/22 02:49:03;;;;;;;;;;;;;;;;;;5056670;28;20321;-69
2022/03/22 02:51:28;;;;;;;;;;;;;;;;;;5054469;28;19988;-69
2022/03/22 02:53:55;;;;;;;;;;;;;;;;;;5054559;28;19913;-69
2022/03/22 02:56:20;;;;;;;;;;;;;;;;;;5052877;28;19917;-69
2022/03/22 02:58:46;;;;;;;;;;;;;;;;;;5053062;28;19915;-68
2022/03/22 03:01:12;;;;;;;;;;;;;;;;;;5051488;28;19912;-68
2022/03/22 03:03:38;;;;;;;;;;;;;;;;;;5052909;28;19905;-68
2022/03/22 03:06:05;;;;;;;;;;;;;;;;;;5052018;28;19998;-68
2022/03/22 03:08:31;;;;;;;;;;;;;;;;;;5053780;28;19924;-69
2022/03/22 03:10:57;;;;;;;;;;;;;;;;;;5053862;28;19908;-68
2022/03/22 03:13:23;;;;;;;;;;;;;;;;;;5053832;28;19909;-68
2022/03/22 03:15:50;;;;;;;;;;;;;;;;;;5052355;28;19908;-68
2022/03/22 03:18:16;;;;;;;;;;;;;;;;;;5053509;28;20377;-68
2022/03/22 03:20:42;;;;;;;;;;;;;;;;;;5052852;28;20006;-68
2022/03/22 03:23:08;;;;;;;;;;;;;;;;;;5054288;28;20285;-68
2022/03/22 03:25:35;;;;;;;;;;;;;;;;;;5053763;28;20053;-68
2022/03/22 03:28:01;;;;;;;;;;;;;;;;;;5053257;28;19916;-67
2022/03/22 03:30:27;;;;;;;;;;;;;;;;;;5051476;28;19979;-67
2022/03/22 03:32:53;;;;;;;;;;;;;;;;;;5053004;28;19909;-68
2022/03/22 03:35:19;;;;;;;;;;;;;;;;;;5052214;28;20292;-67
2022/03/22 03:37:45;;;;;;;;;;;;;;;;;;5052626;28;19959;-68
2022/03/22 03:40:11;;;;;;;;;;;;;;;;;;5053533;28;19958;-68
2022/03/22 03:42:42;;;;;;;;;;;;;;;;;;5053549;28;19916;-69
2022/03/22 03:47:52;;;;;;;;;;;;;;;;;;5052229;28;19916;-68
2022/03/22 03:50:18;;;;;;;;;;;;;;;;;;5052054;28;19908;-69
2022/03/22 03:52:44;;;;;;;;;;;;;;;;;;5051936;28;20015;-68
2022/03/22 03:55:10;;;;;;;;;;;;;;;;;;5053353;28;20376;-67
2022/03/22 03:57:36;;;;;;;;;;;;;;;;;;5056552;28;19908;-68
2022/03/22 04:00:02;;;;;;;;;;;;;;;;;;5054931;28;19913;-69
2022/03/22 04:02:28;;;;;;;;;;;;;;;;;;5053069;28;19944;-69
2022/03/22 04:04:55;;;;;;;;;;;;;;;;;;5050226;28;19968;-69
2022/03/22 04:07:22;;;;;;;;;;;;;;;;;;5047716;28;19995;-67
2022/03/22 04:09:47;;;;;;;;;;;;;;;;;;5051059;28;20377;-69
2022/03/22 04:12:13;;;;;;;;;;;;;;;;;;5053109;28;19937;-69
2022/03/22 04:14:39;;;;;;;;;;;;;;;;;;5053009;28;20426;-68
2022/03/22 04:17:07;;;;;;;;;;;;;;;;;;5052983;28;19908;-67
2022/03/22 04:19:34;;;;;;;;;;;;;;;;;;5050515;28;19908;-68
2022/03/22 04:22:00;;;;;;;;;;;;;;;;;;5067123;28;19912;-68
2022/03/22 04:24:26;;;;;;;;;;;;;;;;;;5052992;28;19912;-69
2022/03/22 04:26:52;;;;;;;;;;;;;;;;;;5051202;28;20301;-68
2022/03/22 04:34:48;;;;;;;;;;;;;;;;;;5051695;28;19963;-68
2022/03/22 04:37:14;;;;;;;;;;;;;;;;;;5049665;28;19971;-68
2022/03/22 04:39:40;;;;;;;;;;;;;;;;;;5050845;28;19913;-68
2022/03/22 04:42:05;;;;;;;;;;;;;;;;;;5051169;28;19970;-66
2022/03/22 04:44:31;;;;;;;;;;;;;;;;;;5050594;28;19908;-67
2022/03/22 04:46:57;;;;;;;;;;;;;;;;;;5052320;28;20365;-68
2022/03/22 04:49:23;;;;;;;;;;;;;;;;;;5050785;28;19999;-66
2022/03/22 04:57:19;;;;;;;26.33;15.93;;;;;;;;;;5051307;28;20035;-68
2022/03/22 04:59:45;;;;;;;27.53;16.70;;;;;;;;;;5051322;28;20028;-67
2022/03/22 05:02:12;;;;;;;27.40;15.93;;;;;;;;;;5051981;28;20095;-68
2022/03/22 05:04:38;;;;;;;29.60;15.33;;;;;;;;;;5041471;28;20420;-68
2022/03/22 05:07:04;;;;;;;30.30;16.30;;;;;;;;;;5051592;28;20025;-69
2022/03/22 05:09:31;;;;;;;32.97;16.77;;;;;;;;;;5051064;28;20029;-68
2022/03/22 05:12:01;;;;;;;28.60;16.57;;;;;;;;;;5050581;28;20044;-68
2022/03/22 05:14:27;;;;;;;30.93;15.97;;;;;;;;;;5055578;28;20104;-68
2022/03/22 05:16:56;;;;;;;51.77;46.50;;;;;;;;;;5053681;28;20021;-69
2022/03/22 05:19:22;;;;;;;28.73;15.80;;;;;;;;;;5055534;28;20036;-67
2022/03/22 05:21:48;;;;;;;29.83;15.87;;;;;;;;;;5056306;28;20025;-68
2022/03/22 05:24:14;;;;;;;25.67;14.63;;;;;;;;;;5062903;28;20378;-71
2022/03/22 05:26:40;;;;;;;26.57;15.93;;;;;;;;;;5065360;28;20025;-67
2022/03/22 05:29:06;;;;;;;31.70;15.30;;;;;;;;;;5053660;28;20040;-69
2022/03/22 05:31:34;;;;;;;223.63;208.00;;;;;;;;;;5049917;28;20119;-69
2022/03/22 05:34:00;;;;;;;134.30;123.90;;;;;;;;;;5050078;28;20499;-71
2022/03/22 05:36:26;;;;;;;32.23;17.17;;;;;;;;;;5051914;28;20025;-72
2022/03/22 05:38:52;;;;;;;30.13;16.47;;;;;;;;;;5050344;28;20037;-70
2022/03/22 05:41:19;;;;;;;29.47;17.23;;;;;;;;;;5051500;28;20094;-72
2022/03/22 05:43:45;;;;;;;31.57;17.07;;;;;;;;;;5089156;22;20056;-69
2022/03/22 05:46:11;;;;;;;34.73;17.40;;;;;;;;;;5074783;28;20020;-69
2022/03/22 05:48:40;;;;;;;31.77;17.37;;;;;;;;;;5065001;28;20029;-69
2022/03/22 05:51:06;;;;;;;30.07;18.30;;;;;;;;;;5069218;28;20036;-70
2022/03/22 05:53:32;;;;;;;31.10;17.87;;;;;;;;;;5054451;28;20029;-68
2022/03/22 05:55:58;;;;;;;29.13;17.77;;;;;;;;;;5046206;28;20037;-70
2022/03/22 05:58:24;;;;;;;29.57;17.03;;;;;;;;;;5056184;28;20048;-70
2022/03/22 06:00:50;;;;;;;30.93;17.07;;;;;;;;;;5050142;28;20041;-70
2022/03/22 06:03:16;;;;;;;28.37;16.83;;;;;;;;;;5060061;28;20028;-69
2022/03/22 06:05:43;;;;;;;30.73;17.20;;;;;;;;;;5052092;28;20033;-69
2022/03/22 06:08:08;;;;;;;31.03;17.53;;;;;;;;;;5043485;28;20491;-68
2022/03/22 06:10:35;;;;;;;26.23;16.63;;;;;;;;;;5037440;28;20036;-68
2022/03/22 06:13:01;;;;;;;31.47;17.53;;;;;;;;;;5032351;28;20074;-69
2022/03/22 06:15:31;;;;;;;29.37;16.73;;;;;;;;;;5043718;28;20087;-69
2022/03/22 06:17:58;;;;;;;29.17;16.87;;;;;;;;;;5041371;28;20037;-68
2022/03/22 06:20:25;;;;;;;29.47;16.97;;;;;;;;;;5028897;28;20045;-68
2022/03/22 06:22:51;;;;;;;30.90;18.20;;;;;;;;;;5049092;28;20078;-69
2022/03/22 06:25:18;;;;;;;33.97;17.93;;;;;;;;;;5051193;28;20167;-69
2022/03/22 06:27:45;;;;;;;30.97;17.73;;;;;;;;;;5045480;28;20032;-70
2022/03/22 06:30:11;;;;;;;27.70;16.27;;;;;;;;;;5052171;28;20115;-68
2022/03/22 06:32:41;;;;;;;32.90;18.60;;;;;;;;;;5047225;28;20029;-67
2022/03/22 06:35:08;;;;;;;29.60;17.93;;;;;;;;;;5026262;28;20029;-69
2022/03/22 06:37:34;;;;;;;26.87;17.13;;;;;;;;;;5036748;28;20112;-68
2022/03/22 06:40:00;;;;;;;28.10;17.77;;;;;;;;;;5052276;28;20519;-68
2022/03/22 06:42:27;;;;;;;28.70;18.33;;;;;;;;;;5056801;28;20467;-67
2022/03/22 06:44:53;;;;;;;26.60;18.27;;;;;;;;;;5056359;28;20036;-67
2022/03/22 06:47:19;;;;;;;28.67;17.55;;;;;;;;;;5054251;28;20033;-69
2022/03/22 06:49:45;;;;;;;29.25;17.77;;;;;;;;;;5056418;28;20494;-69
2022/03/22 06:52:11;;;;;;;29.23;19.00;;;;;;;;;;5053202;28;20060;-68
2022/03/22 06:54:38;;;;;;;30.80;18.15;;;;;;;;;;5048200;28;20539;-70
2022/03/22 06:57:05;;;;;;;32.33;20.13;;;;;;;;;;5050142;28;20037;-74
2022/03/22 06:59:31;;;;;;;28.92;19.77;;;;;;;;;;5056788;28;20025;-67
2022/03/22 07:01:57;;;;;;;29.85;19.92;;;;;;;;;;5036561;28;20037;-67
2022/03/22 07:04:23;;;;;;;31.00;20.38;;;;;;;;;;5052249;28;20029;-68
2022/03/22 07:06:49;;;;;;;27.63;19.42;;;;;;;;;;5046902;28;20102;-67
2022/03/22 07:09:15;;;;;;;29.08;20.05;;;;;;;;;;5032774;28;20028;-67
2022/03/22 07:11:49;;;;;;;30.83;20.98;;;;;;;;;;5035056;28;20025;-71
2022/03/22 07:14:16;;;;;;;29.33;20.85;;;;;;;;;;5048160;28;20114;-70
2022/03/22 07:16:42;;;;;;;30.58;21.38;;;;;;;;;;5050422;28;20033;-71
2022/03/22 07:19:08;;;;;;;31.98;21.70;;;;;;;;;;5042072;28;20029;-71
2022/03/22 07:21:34;;;;;;;32.45;22.08;;;;;;;;;;5030397;28;20497;-72
2022/03/22 07:24:00;;;;;;;31.98;20.65;;;;;;;;;;5049664;28;20029;-70
2022/03/22 07:26:27;;;;;;;29.50;20.67;;;;;;;;;;5049103;28;20029;-70
2022/03/22 07:28:53;;;;;;;28.55;20.77;;;;;;;;;;5053183;28;20116;-71
2022/03/22 07:31:18;;;;;;;29.33;20.88;;;;;;;;;;5048310;28;20129;-70
2022/03/22 07:33:44;;;;;;;29.40;21.25;;;;;;;;;;5048006;28;20032;-73
2022/03/22 07:36:10;;;;;;;30.20;21.13;;;;;;;;;;5044945;28;20025;-69
2022/03/22 07:38:36;;;;;;;30.70;20.80;;;;;;;;;;5051402;28;20021;-72
2022/03/22 07:41:03;;;;;;;31.88;20.95;;;;;;;;;;5048131;28;20065;-71
2022/03/22 07:43:30;;;;;;;27.83;19.73;;;;;;;;;;5038530;28;20511;-71
2022/03/22 07:45:56;;;;;;;30.23;19.95;;;;;;;;;;5049910;28;20020;-70
2022/03/22 07:48:22;;;;;;;30.25;21.00;;;;;;;;;;5039805;28;20036;-71
2022/03/22 07:53:33;;;;;;;26.00;19.10;;;;;;;;;;5037251;28;20368;-71
2022/03/22 07:55:59;;;;;;;26.08;20.83;;;;;;;;;;5052520;28;20028;-70
2022/03/22 07:58:24;;;;;;;28.17;20.13;;;;;;;;;;5052256;28;20057;-71
2022/03/22 08:00:51;;;;;;;27.65;19.88;;;;;;;;;;5045748;28;20021;-72
2022/03/22 08:03:18;;;;;;;26.15;19.52;;;;;;;;;;5036330;28;20131;-72
2022/03/22 08:05:47;;;;;;;25.83;19.67;;;;;;;;;;5043172;28;20389;-70
2022/03/22 08:08:13;;;;;;;26.60;21.05;;;;;;;;;;5034206;28;20067;-70
2022/03/22 08:10:39;;;;;;;24.67;18.38;;;;;;;;;;5052715;28;20027;-69
2022/03/22 08:13:06;;;;;;;24.67;18.92;;;;;;;;;;5053406;28;20112;-71
2022/03/22 08:15:32;;;;;;;27.05;19.98;;;;;;;;;;5044191;28;20027;-71
2022/03/22 08:17:58;;;;;;;26.13;20.40;;;;;;;;;;5046361;28;20493;-69
2022/03/22 08:20:27;;;;;;;24.70;18.02;;;;;;;;;;5049379;28;20029;-70
2022/03/22 08:22:54;;;;;;;21.45;18.38;;;;;;;;;;5053336;28;20029;-74
2022/03/22 08:25:25;;;;;;;23.90;18.52;;;;;;;;;;5033264;28;20022;-68
2022/03/22 08:27:52;;;;;;;23.17;17.98;;;;;;;;;;5035252;28;20032;-69
2022/03/22 08:30:21;;;;;;;22.33;17.48;;;;;;;;;;5065104;28;20021;-68
2022/03/22 08:32:47;;;;;;;25.70;17.98;;;;;;;;;;5070094;28;20111;-69
2022/03/22 08:35:13;;;;;;;22.83;17.23;;;;;;;;;;5055805;28;20466;-69
2022/03/22 08:37:39;;;;;;;21.67;17.45;;;;;;;;;;5043938;28;20041;-69
2022/03/22 08:40:06;;;;;;;22.50;16.98;;;;;;;;;;5029146;28;20043;-71
2022/03/22 08:42:32;;;;;;;23.50;17.33;;;;;;;;;;5026534;28;20075;-68
2022/03/22 08:44:59;;;;;;;22.65;17.55;;;;;;;;;;5045685;28;20440;-68
2022/03/22 08:47:26;;;;;;;21.85;17.20;;;;;;;;;;5055620;28;20056;-73
2022/03/22 08:49:52;;;;;;;19.75;16.15;;;;;;;;;;5048213;28;20021;-73
2022/03/22 08:52:18;;;;;;;23.13;17.00;;;;;;;;;;5035810;28;20040;-72
2022/03/22 08:54:45;;;;;;;19.48;16.52;;;;;;;;;;5046445;28;20037;-72
2022/03/22 08:57:11;;;;;;;23.48;16.77;;;;;;;;;;5023857;28;20461;-71
2022/03/22 08:59:37;;;;;;;19.73;15.82;;;;;;;;;;5040811;28;20057;-72
2022/03/22 09:02:03;;;;;;;20.42;16.23;;;;;;;;;;5043899;28;20043;-71
2022/03/22 09:07:14;;;;;;;18.23;15.35;;;;;;;;;;5041418;28;20040;-73
2022/03/22 09:09:40;;;;;;;22.27;16.48;;;;;;;;;;5051738;28;20020;-72
2022/03/22 09:12:06;;;;;;;23.88;16.75;;;;;;;;;;5034920;28;20032;-72
2022/03/22 09:14:32;;;;;;;18.95;15.35;;;;;;;;;;5042576;28;20152;-72
2022/03/22 09:16:58;;;;;;;22.33;15.57;;;;;;;;;;5051681;28;20036;-71
2022/03/22 09:19:24;;;;;;;18.38;15.05;;;;;;;;;;5048312;28;20420;-72
2022/03/22 09:21:50;;;;;;;21.15;13.77;;;;;;;;;;5046589;28;20056;-72
2022/03/22 09:24:16;;;;;;;20.10;15.35;;;;;;;;;;5026908;28;20492;-74
2022/03/22 09:26:42;;;;;;;20.88;14.52;;;;;;;;;;5052006;28;20032;-73
2022/03/22 09:29:08;;;;;;;19.30;13.77;;;;;;;;;;5051176;28;20028;-72
2022/03/22 09:31:34;;;;;;;20.85;14.23;;;;;;;;;;5041617;28;20089;-72
2022/03/22 09:34:01;;;;;;;20.20;14.48;;;;;;;;;;5041337;28;20028;-73
2022/03/22 09:36:27;;;;;;;17.98;13.73;;;;;;;;;;5047442;28;20029;-72
2022/03/22 09:38:53;;;;;;;20.08;13.80;;;;;;;;;;5052720;28;20092;-72
2022/03/22 09:41:19;;;;;;;20.35;13.98;;;;;;;;;;5052469;28;20029;-72
2022/03/22 09:43:49;;;;;;;17.55;12.57;;;;;;;;;;5051324;28;20090;-72
2022/03/22 09:46:19;;;;;;;17.00;13.00;;;;;;;;;;5046906;28;20056;-74
2022/03/22 09:48:46;;;;;;;20.55;13.80;;;;;;;;;;5044904;28;20032;-72
2022/03/22 09:54:00;;;;;;;18.52;13.02;;;;;;;;;;5034565;28;20064;-73
2022/03/22 09:56:30;;;;;;;19.48;13.38;;;;;;;;;;5048520;28;20466;-74
2022/03/22 09:59:00;;;;;;;19.17;13.18;;;;;;;;;;5024913;28;20025;-71
2022/03/22 10:01:26;;;;;;;18.40;12.77;;;;;;;;;;5034797;28;20064;-72
2022/03/22 10:04:00;;;;;;;19.38;13.40;;;;;;;;;;5048232;28;20029;-73
2022/03/22 10:06:27;;;;;;;19.10;13.33;;;;;;;;;;5046960;28;20366;-73
2022/03/22 10:08:53;;;;;;;21.63;13.90;;;;;;;;;;5056383;28;20028;-73
2022/03/22 10:11:20;;;;;;;22.73;13.93;;;;;;;;;;5033236;28;20021;-73
2022/03/22 10:13:52;;;;;;;20.67;13.35;;;;;;;;;;5034588;28;20247;-73
2022/03/22 10:16:18;;;;;;;21.00;13.07;;;;;;;;;;5053595;28;20562;-71
2022/03/22 10:18:44;;;;;;;17.45;12.88;;;;;;;;;;5047735;28;20397;-72
2022/03/22 10:21:11;;;;;;;17.38;13.13;;;;;;;;;;5042938;28;20025;-74
2022/03/22 10:23:49;;;;;;;18.48;12.40;;;;;;;;;;5051522;28;20028;-72
2022/03/22 10:26:15;;;;;;;19.75;13.27;;;;;;;;;;5055416;28;20040;-75
2022/03/22 10:28:54;;;;;;;19.10;13.18;;;;;;;;;;5054295;28;20115;-73
2022/03/22 10:31:33;;;;;;;19.35;13.07;;;;;;;;;;5056514;28;20376;-74
2022/03/22 10:33:59;;;;;;;17.55;12.27;;;;;;;;;;5057881;28;20032;-74
2022/03/22 10:36:26;;;;;;;18.60;12.73;;;;;;;;;;5045961;28;20009;-71
2022/03/22 10:38:56;;;;;;;18.95;12.45;;;;;;;;;;5030400;28;20059;-75
2022/03/22 10:41:29;;;;;;;17.60;11.80;;;;;;;;;;5046364;28;20074;-74
2022/03/22 10:44:07;;;;;;;19.05;12.32;;;;;;;;;;5052419;28;20033;-72
2022/03/22 10:46:35;;;;;;;19.33;13.18;;;;;;;;;;5029544;28;20481;-73
2022/03/22 10:49:06;;;;;;;19.10;12.60;;;;;;;;;;5033112;28;20033;-73
2022/03/22 10:51:33;;;;;;;19.77;13.68;;;;;;;;;;5033091;28;20021;-72
2022/03/22 10:53:59;;;;;;;19.10;12.40;;;;;;;;;;5051836;28;20124;-74
2022/03/22 10:56:26;;;;;;;17.77;12.77;;;;;;;;;;5035926;28;20025;-74
2022/03/22 10:58:54;;;;;;;18.40;13.20;;;;;;;;;;5055695;28;20102;-75
2022/03/22 11:01:20;;;;;;;17.08;12.90;;;;;;;;;;5038699;28;20057;-72
2022/03/22 11:03:48;;;;;;;17.73;12.77;;;;;;;;;;5052032;28;20032;-71
2022/03/22 11:06:14;;;;;;;18.85;12.13;;;;;;;;;;5036571;28;20029;-72
2022/03/22 11:08:41;;;;;;;17.35;12.52;;;;;;;;;;5050048;28;20036;-75
2022/03/22 11:11:07;;;;;;;18.63;12.52;;;;;;;;;;5035461;28;20055;-75
2022/03/22 11:13:34;;;;;;;17.98;12.45;;;;;;;;;;5056480;28;20036;-72
2022/03/22 11:16:01;;;;;;;15.00;11.73;;;;;;;;;;5038293;28;20017;-73
2022/03/22 11:18:29;;;;;;;16.90;12.32;;;;;;;;;;5054891;28;20052;-73
2022/03/22 11:20:56;;;;;;;15.30;11.57;;;;;;;;;;5034626;28;20025;-73
2022/03/22 11:23:26;;;;;;;19.02;12.10;;;;;;;;;;5049263;28;20025;-72
2022/03/22 11:25:52;;;;;;;15.88;12.00;;;;;;;;;;5056388;28;20028;-72
2022/03/22 11:28:20;;;;;;;20.50;12.50;;;;;;;;;;5055066;28;20079;-72
2022/03/22 11:30:47;;;;;;;16.08;11.88;;;;;;;;;;5045337;28;20078;-71
2022/03/22 11:36:01;;;;;;;17.23;11.93;;;;;;;;;;5045775;28;20040;-72
2022/03/22 11:38:46;;;;;;;13.85;11.43;;;;;;;;;;5045052;28;20029;-74
2022/03/22 11:44:16;;;;;;;16.38;11.25;;;;;;;;;;5065353;23;20052;-71
2022/03/22 11:46:42;;;;;;;13.00;10.73;;;;;;;;;;5043589;28;20039;-70
2022/03/22 11:49:27;;;;;;;14.07;10.75;;;;;;;;;;5043174;28;20045;-70
2022/03/22 11:51:57;;;;;;;16.13;11.73;;;;;;;;;;5050140;28;20252;-70
2022/03/22 11:54:27;;;;;;;16.88;10.73;;;;;;;;;;5042002;28;20032;-70
2022/03/22 11:56:58;;;;;;;18.00;11.25;;;;;;;;;;5052656;28;20569;-70
2022/03/22 11:59:25;;;;;;;15.40;10.35;;;;;;;;;;5052673;28;20025;-72
2022/03/22 12:01:58;;;;;;;16.23;10.95;;;;;;;;;;5043031;28;20017;-71
2022/03/22 12:04:35;;;;;;;17.65;10.82;;;;;;;;;;5045917;28;20066;-71
2022/03/22 12:07:02;;;;;;;17.52;12.25;;;;;;;;;;5052290;28;20103;-70
2022/03/22 12:09:28;;;;;;;14.13;11.10;;;;;;;;;;5052433;28;20029;-70
2022/03/22 12:11:55;;;;;;;14.13;10.43;;;;;;;;;;5028688;28;20064;-70
2022/03/22 12:14:29;;;;;;;20.17;11.40;;;;;;;;;;5052711;28;20107;-69
2022/03/22 12:16:59;;;;;;;16.58;11.13;;;;;;;;;;5050779;28;20017;-70
2022/03/22 12:19:29;;;;;;;13.90;11.13;;;;;;;;;;5054281;28;20031;-69
2022/03/22 12:21:56;;;;;;;16.08;10.95;;;;;;;;;;5049813;28;20035;-67
2022/03/22 12:24:23;;;;;;;15.10;10.40;;;;;;;;;;5054409;28;20025;-68
2022/03/22 12:26:50;;;;;;;14.93;10.93;;;;;;;;;;5054390;28;20021;-70
2022/03/22 12:29:16;;;;;;;16.10;10.57;;;;;;;;;;5028190;28;20151;-69
2022/03/22 12:31:51;;;;;;;13.98;11.15;;;;;;;;;;5043421;28;20075;-67
2022/03/22 12:34:18;;;;;;;15.77;11.32;;;;;;;;;;5042857;28;20075;-67
2022/03/22 12:36:44;;;;;;;14.95;10.52;;;;;;;;;;5051703;28;20032;-66
2022/03/22 12:39:11;;;;;;;13.90;10.30;;;;;;;;;;5051665;28;20029;-67
2022/03/22 12:41:37;;;;;;;14.27;10.95;;;;;;;;;;5044948;28;20066;-69
2022/03/22 12:44:04;;;;;;;15.23;10.93;;;;;;;;;;5050876;28;20040;-70
2022/03/22 12:46:30;;;;;;;15.85;10.93;;;;;;;;;;5046135;28;20029;-71
2022/03/22 12:48:57;;;;;;;16.13;10.52;;;;;;;;;;5042889;28;20036;-71
2022/03/22 12:51:25;;;;;;;14.52;10.45;;;;;;;;;;5026945;28;20400;-71
2022/03/22 12:53:51;;;;;;;10.35;8.70;;;;;;;;;;5053955;28;20055;-70
2022/03/22 12:56:18;;;;;;;11.93;8.95;;;;;;;;;;5054439;28;20113;-71
2022/03/22 12:58:44;;;;;;;12.05;8.82;;;;;;;;;;5046498;28;20029;-71
2022/03/22 13:01:10;;;;;;;12.18;8.90;;;;;;;;;;5050153;28;20029;-71
2022/03/22 13:03:38;;;;;;;10.27;8.00;;;;;;;;;;5051739;28;20075;-71
2022/03/22 13:06:06;;;;;;;12.05;8.40;;;;;;;;;;5018638;28;20025;-72
2022/03/22 13:11:28;;;;;;;14.40;8.50;;;;;;;;;;5041922;28;20385;-70
2022/03/22 13:16:39;;;;;;;13.13;8.35;;;;;;;;;;5051853;28;20056;-72
2022/03/22 13:19:06;;;;;;;12.38;8.50;;;;;;;;;;5051004;28;20021;-71
2022/03/22 13:21:37;;;;;;;12.95;9.20;;;;;;;;;;5037970;28;20025;-72
2022/03/22 13:24:08;;;;;;;13.02;8.82;;;;;;;;;;5051678;28;20032;-71
2022/03/22 13:26:39;;;;;;;10.75;8.63;;;;;;;;;;5014132;28;20029;-71
2022/03/22 13:29:15;;;;;;;11.40;8.40;;;;;;;;;;5051583;28;20110;-71
2022/03/22 13:31:52;;;;;;;11.35;8.27;;;;;;;;;;5032240;28;20037;-71
2022/03/22 13:34:25;;;;;;;10.48;8.50;;;;;;;;;;5033083;28;20052;-72
2022/03/22 13:37:02;;;;;;;12.98;8.45;;;;;;;;;;5051305;28;20385;-71
2022/03/22 13:39:29;;;;;;;15.27;8.70;;;;;;;;;;5051722;28;20035;-71
2022/03/22 13:42:15;;;;;;;12.13;8.77;;;;;;;;;;5050613;28;20025;-72
2022/03/22 13:44:45;;;;;;;13.75;9.63;;;;;;;;;;5045395;28;20489;-71
2022/03/22 13:47:11;;;;;;;13.25;9.85;;;;;;;;;;5052448;28;20489;-70
2022/03/22 13:49:38;;;;;;;12.45;9.57;;;;;;;;;;5047186;28;20021;-70
2022/03/22 13:52:04;;;;;;;19.55;12.18;;;;;;;;;;5022930;28;20397;-71
2022/03/22 13:54:30;;;;;;;12.40;9.57;;;;;;;;;;5053139;28;20017;-71
2022/03/22 13:57:07;;;;;;;13.00;9.80;;;;;;;;;;5049890;28;20025;-70
2022/03/22 13:59:42;;;;;;;15.52;10.82;;;;;;;;;;5043092;28;20481;-71
2022/03/22 14:02:09;;;;;;;13.30;10.00;;;;;;;;;;5048321;28;20488;-70
2022/03/22 14:04:35;;;;;;;12.73;9.40;;;;;;;;;;5050613;28;20052;-70
2022/03/22 14:07:02;;;;;;;17.17;11.35;;;;;;;;;;5043200;28;20101;-71
2022/03/22 14:09:28;;;;;;;12.63;10.52;;;;;;;;;;5033225;28;20493;-71
2022/03/22 14:11:54;;;;;;;14.38;10.15;;;;;;;;;;5051529;28;20397;-71
2022/03/22 14:14:21;;;;;;;12.77;10.07;;;;;;;;;;5046898;28;20106;-69
2022/03/22 14:16:47;;;;;;;16.30;10.80;;;;;;;;;;5037835;28;20025;-70
2022/03/22 14:19:15;;;;;;;15.25;10.32;;;;;;;;;;5029745;28;20052;-70
2022/03/22 14:21:41;;;;;;;14.77;10.48;;;;;;;;;;5040557;28;20018;-69
2022/03/22 14:24:07;;;;;;;13.68;10.25;;;;;;;;;;5047614;28;20517;-70
2022/03/22 14:26:33;;;;;;;14.02;11.13;;;;;;;;;;5029921;28;20496;-69
2022/03/22 14:28:59;;;;;;;15.38;10.70;;;;;;;;;;5041712;28;20029;-69
2022/03/22 14:31:25;;;;;;;13.25;10.75;;;;;;;;;;5042460;28;20497;-69
2022/03/22 14:33:51;;;;;;;14.80;10.18;;;;;;;;;;5065899;28;20022;-69
2022/03/22 14:36:17;;;;;;;13.50;9.90;;;;;;;;;;5056231;28;20017;-69
2022/03/22 14:38:43;;;;;;;15.60;10.55;;;;;;;;;;5044424;28;20036;-69
2022/03/22 14:41:25;;;;;;;12.55;9.77;;;;;;;;;;5017034;28;20036;-70
2022/03/22 14:43:55;;;;;;;14.18;10.52;;;;;;;;;;5038505;28;20075;-69
2022/03/22 14:46:21;;;;;;;14.32;10.65;;;;;;;;;;5046942;28;20060;-70
2022/03/22 14:48:49;;;;;;;13.05;10.43;;;;;;;;;;5033611;28;20041;-70
2022/03/22 14:51:17;;;;;;;14.50;10.98;;;;;;;;;;5041992;28;20345;-69
2022/03/22 14:59:15;;;;;;;14.45;10.98;;;;;;;;;;5048091;28;20093;-71
2022/03/22 15:01:41;;;;;;;14.02;10.57;;;;;;;;;;5059694;28;20033;-68
2022/03/22 15:04:07;;;;;;;14.27;10.75;;;;;;;;;;5056650;28;20075;-70
2022/03/22 15:06:33;;;;;;;13.82;10.52;;;;;;;;;;5030973;28;20082;-70
2022/03/22 15:08:59;;;;;;;14.32;10.82;;;;;;;;;;5046231;28;20029;-69
2022/03/22 15:11:27;;;;;;;13.25;10.65;;;;;;;;;;5042619;28;20028;-70
2022/03/22 15:13:54;;;;;;;14.70;10.95;;;;;;;;;;5037537;28;20025;-69
2022/03/22 15:16:20;;;;;;;14.98;10.20;;;;;;;;;;5029540;28;20029;-69
2022/03/22 15:18:46;;;;;;;15.48;10.32;;;;;;;;;;5039755;28;20121;-69
2022/03/22 15:21:12;;;;;;;13.43;10.02;;;;;;;;;;5027832;28;20056;-70
2022/03/22 15:23:39;;;;;;;14.15;10.77;;;;;;;;;;5054166;28;20036;-69
2022/03/22 15:26:08;;;;;;;14.05;10.50;;;;;;;;;;5043841;28;20108;-70
2022/03/22 15:28:38;;;;;;;12.30;9.88;;;;;;;;;;5048637;28;20044;-71